Time;durP1;ratioP1;P1;durP2;ratioP2;P2;SDS_P1;SDS_P2;PMS_P1;PMS_P2;Temp;Humidity;BMP_temperature;BMP_pressure;BME280_temperature;BME280_humidity;BME280_pressure;Samples;Min_cycle;Max_cycle;Signal;HPM_P1;HPM_P2
2021/04/05 00:01:59;;;;;;;34.70;17.97;;;;;;;;;;4854388;28;20671;-74
2021/04/05 00:04:21;;;;;;;37.23;18.23;;;;;;;;;;4863429;28;20619;-74
2021/04/05 00:06:43;;;;;;;37.13;18.27;;;;;;;;;;4822576;28;20652;-74
2021/04/05 00:09:07;;;;;;;32.07;17.17;;;-2.00;99.90;;;;;;4809547;28;20621;-74
2021/04/05 00:11:29;;;;;;;44.33;19.57;;;;;;;;;;4802131;28;20653;-74
2021/04/05 00:13:53;;;;;;;37.73;19.10;;;-2.10;1.00;;;;;;4807624;28;20702;-74
2021/04/05 00:16:17;;;;;;;33.63;17.53;;;-2.20;1.00;;;;;;4807136;28;20678;-74
2021/04/05 00:18:40;;;;;;;29.20;16.13;;;;;;;;;;4805239;28;20610;-74
2021/04/05 00:21:07;;;;;;;29.40;16.33;;;-2.20;99.90;;;;;;4806413;28;20614;-73
2021/04/05 00:23:30;;;;;;;34.90;17.17;;;;;;;;;;4815717;28;20616;-74
2021/04/05 00:25:52;;;;;;;37.17;17.83;;;;;;;;;;4816085;28;20585;-73
2021/04/05 00:28:15;;;;;;;34.67;17.33;;;;;;;;;;4813109;28;21343;-74
2021/04/05 00:30:38;;;;;;;31.70;15.97;;;-2.30;99.90;;;;;;4804618;28;20623;-74
2021/04/05 00:33:01;;;;;;;32.87;17.03;;;-2.40;99.90;;;;;;4807154;28;20610;-75
2021/04/05 00:35:26;;;;;;;37.90;18.20;;;-2.40;99.90;;;;;;4811184;28;20660;-74
2021/04/05 00:37:49;;;;;;;40.60;19.43;;;;;;;;;;4806164;28;20610;-74
2021/04/05 00:40:13;;;;;;;37.93;18.47;;;-2.50;1.00;;;;;;4799715;28;20622;-74
2021/04/05 00:42:36;;;;;;;41.57;20.30;;;;;;;;;;4807022;28;20670;-74
2021/04/05 00:44:58;;;;;;;43.43;21.10;;;;;;;;;;4807145;28;20683;-74
2021/04/05 00:47:21;;;;;;;37.87;17.63;;;-2.60;1.00;;;;;;4806429;28;20687;-75
2021/04/05 00:49:43;;;;;;;39.03;18.97;;;;;;;;;;4810314;28;20611;-75
2021/04/05 00:52:06;;;;;;;39.23;20.17;;;-2.70;1.00;;;;;;4808175;28;20657;-74
2021/04/05 00:54:29;;;;;;;42.63;21.43;;;;;;;;;;4807431;28;20980;-75
2021/04/05 00:56:52;;;;;;;37.47;19.40;;;;;;;;;;4806922;28;21018;-74
2021/04/05 00:59:15;;;;;;;44.17;22.57;;;;;;;;;;4806907;28;20701;-74
2021/04/05 01:01:37;;;;;;;57.47;24.97;;;;;;;;;;4805325;28;20626;-75
2021/04/05 01:04:00;;;;;;;41.27;22.60;;;;;;;;;;4805025;28;20610;-74
2021/04/05 01:06:24;;;;;;;41.90;21.97;;;-2.70;99.90;;;;;;4806049;28;21599;-74
2021/04/05 01:08:46;;;;;;;42.90;22.77;;;;;;;;;;4812136;28;21036;-74
2021/04/05 01:11:11;;;;;;;52.33;24.53;;;-2.80;99.90;;;;;;4808977;28;20707;-73
2021/04/05 01:13:33;;;;;;;44.27;22.53;;;;;;;;;;4809186;28;20653;-73
2021/04/05 01:15:56;;;;;;;46.67;23.50;;;;;;;;;;4805656;28;20640;-74
2021/04/05 01:18:18;;;;;;;45.90;22.90;;;;;;;;;;4807811;28;20693;-74
2021/04/05 01:20:41;;;;;;;43.27;24.40;;;-2.80;99.90;;;;;;4811874;28;20618;-73
2021/04/05 01:23:05;;;;;;;47.73;24.47;;;-2.90;1.00;;;;;;4810745;28;20613;-72
2021/04/05 01:25:27;;;;;;;44.13;24.07;;;;;;;;;;4806492;28;20626;-74
2021/04/05 01:27:52;;;;;;;49.03;24.47;;;-3.00;1.00;;;;;;4808232;28;20712;-74
2021/04/05 01:30:28;;;;;;;51.07;25.23;;;-3.00;1.00;;;;;;4812649;28;21157;-74
2021/04/05 01:32:50;;;;;;;47.93;24.80;;;;;;;;;;4806147;28;20651;-74
2021/04/05 01:35:13;;;;;;;46.23;24.00;;;;;;;;;;4812733;28;21016;-74
2021/04/05 01:37:35;;;;;;;43.70;25.83;;;;;;;;;;4813462;28;20622;-74
2021/04/05 01:39:58;;;;;;;51.87;26.13;;;-3.00;1.00;;;;;;4812787;28;20635;-76
2021/04/05 01:42:20;;;;;;;55.87;29.53;;;;;;;;;;4807145;28;20657;-74
2021/04/05 01:44:42;;;;;;;50.87;27.87;;;;;;;;;;4809585;28;20598;-74
2021/04/05 01:47:05;;;;;;;41.80;24.83;;;;;;;;;;4809427;28;21227;-74
2021/04/05 01:49:27;;;;;;;45.20;25.03;;;;;;;;;;4808877;28;20671;-74
2021/04/05 01:51:49;;;;;;;49.43;26.03;;;;;;;;;;4810375;28;20614;-75
2021/04/05 01:54:12;;;;;;;47.03;25.00;;;;;;;;;;4808595;28;20621;-75
2021/04/05 01:56:34;;;;;;;41.50;24.57;;;-3.20;1.00;;;;;;4807381;28;20658;-74
2021/04/05 01:58:57;;;;;;;47.80;24.90;;;;;;;;;;4806285;28;20618;-74
2021/04/05 02:01:22;;;;;;;48.93;24.87;;;-3.20;1.00;;;;;;4805303;28;20736;-74
2021/04/05 02:03:44;;;;;;;45.73;25.13;;;-3.30;1.00;;;;;;4809549;28;20615;-75
2021/04/05 02:06:09;;;;;;;43.03;25.97;;;-3.30;1.00;;;;;;4807961;28;20699;-74
2021/04/05 02:08:33;;;;;;;44.27;25.97;;;-3.30;1.00;;;;;;4800185;28;20763;-74
2021/04/05 02:10:57;;;;;;;42.43;23.87;;;-3.30;1.00;;;;;;4811289;28;21158;-75
2021/04/05 02:13:21;;;;;;;43.07;24.60;;;-3.30;1.00;;;;;;4807062;28;20698;-76
2021/04/05 02:15:43;;;;;;;42.60;23.90;;;;;;;;;;4809504;28;20683;-75
2021/04/05 02:18:06;;;;;;;43.63;24.63;;;;;;;;;;4806496;28;20617;-75
2021/04/05 02:20:30;;;;;;;42.53;24.07;;;-3.30;1.00;;;;;;4803792;28;20656;-76
2021/04/05 02:22:53;;;;;;;46.87;24.17;;;-3.40;1.00;;;;;;4807702;28;20645;-75
2021/04/05 02:25:17;;;;;;;37.57;22.83;;;-3.40;1.00;;;;;;4806944;28;20621;-75
2021/04/05 02:27:41;;;;;;;37.40;23.07;;;-3.40;1.00;;;;;;4811779;28;21226;-75
2021/04/05 02:30:08;;;;;;;42.33;24.67;;;-3.40;1.00;;;;;;4806634;28;20606;-74
2021/04/05 02:32:31;;;;;;;44.67;23.87;;;-3.50;1.00;;;;;;4801972;28;20614;-75
2021/04/05 02:34:53;;;;;;;48.53;25.40;;;;;;;;;;4810969;28;21228;-75
2021/04/05 02:37:16;;;;;;;39.50;23.90;;;;;;;;;;4816161;28;21219;-75
2021/04/05 02:39:39;;;;;;;40.97;23.63;;;;;;;;;;4818363;28;20617;-75
2021/04/05 02:42:01;;;;;;;47.70;25.13;;;;;;;;;;4808850;28;20661;-75
2021/04/05 02:44:24;;;;;;;44.70;26.13;;;;;;;;;;4807665;28;20622;-75
2021/04/05 02:46:49;;;;;;;47.20;27.47;;;-3.60;1.00;;;;;;4811856;28;20648;-75
2021/04/05 02:49:13;;;;;;;42.43;24.13;;;-3.50;1.00;;;;;;4807071;28;20672;-74
2021/04/05 02:51:40;;;;;;;48.73;25.83;;;-3.60;1.00;;;;;;4805799;28;20607;-75
2021/04/05 02:54:05;;;;;;;50.37;28.23;;;-3.60;1.00;;;;;;4809864;28;20604;-75
2021/04/05 02:56:27;;;;;;;46.23;26.77;;;;;;;;;;4806480;28;20653;-75
2021/04/05 02:58:52;;;;;;;45.73;25.80;;;-3.60;1.00;;;;;;4807847;28;20606;-75
2021/04/05 03:01:15;;;;;;;47.23;26.10;;;-3.60;1.00;;;;;;4801496;28;20610;-75
2021/04/05 03:03:38;;;;;;;44.70;24.90;;;-3.60;1.00;;;;;;4807297;28;20601;-75
2021/04/05 03:06:01;;;;;;;44.53;25.17;;;;;;;;;;4806604;28;21050;-75
2021/04/05 03:08:26;;;;;;;45.83;25.67;;;-3.60;1.00;;;;;;4807034;28;20621;-74
2021/04/05 03:10:50;;;;;;;45.67;25.33;;;;;;;;;;4797369;28;20638;-75
2021/04/05 03:13:13;;;;;;;46.63;25.73;;;;;;;;;;4808551;28;20653;-75
2021/04/05 03:15:35;;;;;;;45.13;25.70;;;;;;;;;;4812753;28;20651;-75
2021/04/05 03:17:59;;;;;;;47.17;25.07;;;-3.60;1.00;;;;;;4809242;28;21119;-75
2021/04/05 03:20:27;;;;;;;45.03;24.90;;;-3.60;1.00;;;;;;4807022;28;20609;-76
2021/04/05 03:22:50;;;;;;;45.90;25.00;;;;;;;;;;4805269;28;20646;-75
2021/04/05 03:25:16;;;;;;;44.10;25.70;;;-3.70;1.00;;;;;;4806025;28;21248;-75
2021/04/05 03:27:39;;;;;;;44.77;25.33;;;;;;;;;;4807004;28;20662;-75
2021/04/05 03:30:02;;;;;;;43.10;25.10;;;-3.70;1.00;;;;;;4808702;28;20662;-75
2021/04/05 03:32:24;;;;;;;44.13;25.63;;;;;;;;;;4805735;28;20633;-75
2021/04/05 03:34:52;;;;;;;46.70;25.87;;;-3.70;1.00;;;;;;4808221;28;20662;-75
2021/04/05 03:37:19;;;;;;;48.03;26.30;;;-3.70;1.00;;;;;;4809002;28;21243;-74
2021/04/05 03:39:42;;;;;;;47.93;26.13;;;;;;;;;;4805264;28;21161;-75
2021/04/05 03:42:09;;;;;;;42.20;25.80;;;-3.80;1.00;;;;;;4805001;28;20653;-74
2021/04/05 03:44:41;;;;;;;42.10;25.17;;;-3.80;1.00;;;;;;4808108;28;20609;-74
2021/04/05 03:47:21;;;;;;;44.20;25.20;;;-3.80;1.00;;;;;;4809407;28;21124;-74
2021/04/05 03:49:50;;;;;;;49.37;25.73;;;-3.80;1.00;;;;;;4807856;28;20594;-74
2021/04/05 03:52:20;;;;;;;46.10;26.03;;;-3.80;1.00;;;;;;4803621;28;20679;-74
2021/04/05 03:54:45;;;;;;;45.77;24.83;;;-3.80;1.00;;;;;;4808902;28;21178;-74
2021/04/05 03:57:09;;;;;;;45.63;25.57;;;-3.90;1.00;;;;;;4806638;28;20656;-74
2021/04/05 03:59:36;;;;;;;44.83;25.40;;;-3.90;1.00;;;;;;4807153;28;20676;-74
2021/04/05 04:02:03;;;;;;;43.13;25.00;;;-3.80;1.00;;;;;;4807800;28;20659;-74
2021/04/05 04:04:33;;;;;;;45.00;24.53;;;-3.90;1.00;;;;;;4809298;28;20687;-74
2021/04/05 04:07:05;;;;;;;42.37;24.07;;;-3.90;3.70;;;;;;4804567;28;20613;-74
2021/04/05 04:09:29;;;;;;;43.00;24.03;;;-3.90;6.30;;;;;;4810443;28;20582;-74
2021/04/05 04:11:54;;;;;;;46.53;24.77;;;-3.90;8.50;;;;;;4808574;28;20606;-74
2021/04/05 04:14:38;;;;;;;42.27;23.93;;;-3.90;11.30;;;;;;4803429;28;21148;-74
2021/04/05 04:17:25;;;;;;;43.13;24.90;;;-3.90;14.20;;;;;;4811153;28;20593;-75
2021/04/05 04:20:11;;;;;;;48.30;25.43;;;-3.90;16.80;;;;;;4808759;28;20694;-74
2021/04/05 04:22:56;;;;;;;49.23;26.17;;;-3.80;20.20;;;;;;4805427;28;20630;-74
2021/04/05 04:25:19;;;;;;;49.93;26.30;;;-3.80;22.60;;;;;;4807030;28;20698;-74
2021/04/05 04:27:44;;;;;;;40.60;24.40;;;-3.20;25.20;;;;;;4807352;28;20651;-74
2021/04/05 04:30:07;;;;;;;40.07;23.50;;;-3.70;26.60;;;;;;4807649;28;21393;-75
2021/04/05 04:32:29;;;;;;;42.43;24.23;;;;;;;;;;4802354;28;20671;-74
2021/04/05 04:34:52;;;;;;;43.03;24.40;;;;;;;;;;4807939;28;20614;-74
2021/04/05 04:37:14;;;;;;;42.17;24.27;;;;;;;;;;4807818;28;21018;-74
2021/04/05 04:39:36;;;;;;;43.17;23.63;;;;;;;;;;4805033;28;20610;-74
2021/04/05 04:42:01;;;;;;;46.33;24.80;;;-3.50;44.10;;;;;;4802179;28;20652;-75
2021/04/05 04:44:23;;;;;;;38.13;23.20;;;;;;;;;;4806913;28;21508;-74
2021/04/05 04:46:45;;;;;;;41.57;24.30;;;;;;;;;;4812862;28;20686;-74
2021/04/05 04:49:10;;;;;;;38.33;22.20;;;-3.30;53.80;;;;;;4810787;28;20651;-74
2021/04/05 04:51:32;;;;;;;49.23;24.17;;;;;;;;;;4809517;28;20686;-75
2021/04/05 04:53:55;;;;;;;41.27;23.67;;;;;;;;;;4809318;28;21185;-75
2021/04/05 04:56:17;;;;;;;42.37;23.80;;;;;;;;;;4807494;28;20653;-74
2021/04/05 04:58:40;;;;;;;39.63;23.70;;;-2.90;65.60;;;;;;4809374;28;21551;-75
2021/04/05 05:01:03;;;;;;;39.73;23.23;;;;;;;;;;4806383;28;20648;-74
2021/04/05 05:03:26;;;;;;;38.97;22.60;;;-2.70;70.70;;;;;;4807878;28;20656;-75
2021/04/05 05:05:50;;;;;;;43.87;24.53;;;-2.60;72.90;;;;;;4810139;28;20656;-74
2021/04/05 05:08:13;;;;;;;37.97;21.97;;;;;;;;;;4810243;28;20613;-74
2021/04/05 05:10:35;;;;;;;35.00;21.83;;;;;;;;;;4810393;28;20605;-74
2021/04/05 05:12:57;;;;;;;44.77;24.23;;;;;;;;;;4809097;28;21053;-74
2021/04/05 05:15:22;;;;;;;36.83;22.70;;;-2.20;77.50;;;;;;4803011;28;21162;-74
2021/04/05 05:17:46;;;;;;;37.87;23.03;;;-2.10;78.00;;;;;;4808678;28;20636;-74
2021/04/05 05:20:10;;;;;;;39.97;23.47;;;-1.90;78.00;;;;;;4813029;28;20734;-74
2021/04/05 05:22:35;;;;;;;35.57;22.57;;;-1.80;77.90;;;;;;4807686;28;20657;-74
2021/04/05 05:25:03;;;;;;;43.33;23.97;;;-1.70;76.40;;;;;;4814931;28;21148;-74
2021/04/05 05:27:27;;;;;;;36.43;22.90;;;-1.50;75.30;;;;;;4806368;28;20775;-75
2021/04/05 05:29:51;;;;;;;38.13;22.37;;;-1.50;72.30;;;;;;4809077;28;20616;-74
2021/04/05 05:32:17;;;;;;;37.00;22.10;;;-1.20;68.70;;;;;;4814617;28;20187;-74
2021/04/05 05:34:40;;;;;;;34.90;22.37;;;;;;;;;;4807919;28;20774;-74
2021/04/05 05:37:03;;;;;;;34.07;21.77;;;-1.00;59.00;;;;;;4812860;28;20625;-74
2021/04/05 05:39:26;;;;;;;34.07;21.33;;;-0.80;53.30;;;;;;4807464;28;20677;-75
2021/04/05 05:41:59;;;;;;;34.40;20.87;;;-0.60;47.10;;;;;;4804680;28;21016;-75
2021/04/05 05:44:27;;;;;;;24.40;15.63;;;-0.40;39.80;;;;;;4813053;28;21157;-74
2021/04/05 05:46:53;;;;;;;22.57;12.20;;;-0.10;13.10;;;;;;4808963;28;20613;-74
2021/04/05 05:49:26;;;;;;;21.33;11.30;;;0.20;1.00;;;;;;4809494;28;20644;-74
2021/04/05 05:52:09;;;;;;;19.63;9.70;;;0.60;1.00;;;;;;4810008;28;21190;-74
2021/04/05 05:54:43;;;;;;;18.90;9.47;;;1.00;99.90;;;;;;4811977;28;20645;-75
2021/04/05 05:57:10;;;;;;;18.13;8.43;;;1.30;1.00;;;;;;4813542;28;20652;-74
2021/04/05 05:59:41;;;;;;;20.90;11.13;;;1.60;1.00;;;;;;4813336;28;20709;-75
2021/04/05 06:02:21;;;;;;;16.23;9.30;;;1.80;41.80;;;;;;4802291;28;20630;-74
2021/04/05 06:05:02;;;;;;;20.03;11.37;;;2.00;1.00;;;;;;4802643;28;20180;-74
2021/04/05 06:07:32;;;;;;;17.40;11.40;;;2.20;1.00;;;;;;4805339;28;20233;-74
2021/04/05 06:10:17;;;;;;;23.83;12.37;;;2.40;99.90;;;;;;4812739;28;20598;-75
2021/04/05 06:12:44;;;;;;;18.40;9.30;;;2.60;99.90;;;;;;4810633;28;20720;-75
2021/04/05 06:15:16;;;;;;;18.77;10.63;;;2.60;99.90;;;;;;4803085;28;20580;-75
2021/04/05 06:17:52;;;;;;;18.40;9.23;;;3.20;1.00;;;;;;4806464;28;20175;-75
2021/04/05 06:20:21;;;;;;;17.50;9.07;;;3.40;1.00;;;;;;4808076;28;20601;-77
2021/04/05 06:22:58;;;;;;;13.80;6.50;;;3.70;1.00;;;;;;4811708;28;20223;-74
2021/04/05 06:25:28;;;;;;;11.27;6.00;;;4.00;1.00;;;;;;4808658;28;20184;-75
2021/04/05 06:27:55;;;;;;;12.13;5.13;;;4.30;1.00;;;;;;4807382;28;20184;-75
2021/04/05 06:30:25;;;;;;;11.87;5.07;;;4.60;1.00;;;;;;4804690;28;20621;-75
2021/04/05 06:32:58;;;;;;;16.53;5.20;;;4.70;1.00;;;;;;4814859;28;20672;-75
2021/04/05 06:35:58;;;;;;;10.30;4.07;;;4.90;1.00;;;;;;4801751;28;20241;-74
2021/04/05 06:38:24;;;;;;;9.27;3.30;;;5.20;1.00;;;;;;4799313;28;21011;-74
2021/04/05 06:40:48;;;;;;;12.30;3.80;;;5.50;1.00;;;;;;4806377;28;20214;-75
2021/04/05 06:43:39;;;;;;;9.93;2.87;;;5.80;1.00;;;;;;4810266;28;20223;-76
2021/04/05 06:46:17;;;;;;;8.13;2.67;;;6.30;1.00;;;;;;4804810;28;20197;-75
2021/04/05 06:49:29;;;;;;;7.53;2.60;;;6.50;1.00;;;;;;4807043;28;20173;-76
2021/04/05 06:52:14;;;;;;;10.57;2.87;;;6.70;99.90;;;;;;4807859;28;20203;-76
2021/04/05 06:55:27;;;;;;;7.63;2.63;;;6.90;99.90;;;;;;4806540;28;20230;-75
2021/04/05 06:58:12;;;;;;;14.17;3.63;;;7.20;99.90;;;;;;4807949;28;20579;-75
2021/04/05 07:00:42;;;;;;;55.47;10.47;;;7.50;99.90;;;;;;4806125;28;20181;-77
2021/04/05 07:03:32;;;;;;;7.40;2.67;;;7.60;99.90;;;;;;4806972;28;20709;-77
2021/04/05 07:06:29;;;;;;;13.77;3.20;;;7.80;99.90;;;;;;4815785;28;20689;-76
2021/04/05 07:09:04;;;;;;;10.33;3.07;;;7.80;99.90;;;;;;4838050;28;20650;-77
2021/04/05 07:11:32;;;;;;;16.80;4.03;;;7.90;99.90;;;;;;4893046;28;20210;-76
2021/04/05 07:14:09;;;;;;;13.23;3.27;;;7.90;99.90;;;;;;4809429;28;20272;-76
2021/04/05 07:16:45;;;;;;;6.37;2.30;;;7.90;99.90;;;;;;4807065;28;20222;-75
2021/04/05 07:19:16;;;;;;;7.53;2.20;;;8.00;99.90;;;;;;4806228;28;20183;-75
2021/04/05 07:21:48;;;;;;;19.70;4.47;;;8.00;99.90;;;;;;4810747;28;20252;-77
2021/04/05 07:24:19;;;;;;;9.33;2.60;;;8.10;99.90;;;;;;4823082;28;20231;-75
2021/04/05 07:26:46;;;;;;;7.53;2.23;;;8.10;99.90;;;;;;4802649;28;20188;-74
2021/04/05 07:29:18;;;;;;;11.33;3.13;;;8.20;99.90;;;;;;4806920;28;20262;-76
2021/04/05 07:31:51;;;;;;;18.73;4.50;;;8.20;99.90;;;;;;4836291;28;20196;-75
2021/04/05 07:34:25;;;;;;;10.43;3.03;;;8.40;99.90;;;;;;4806208;28;20225;-76
2021/04/05 07:36:52;;;;;;;12.70;3.43;;;8.50;99.90;;;;;;4855911;28;20191;-74
2021/04/05 07:39:24;;;;;;;12.90;3.27;;;8.60;99.90;;;;;;4844495;28;20589;-76
2021/04/05 07:41:49;;;;;;;11.67;3.00;;;8.60;99.90;;;;;;4805523;28;20184;-75
2021/04/05 07:44:25;;;;;;;10.63;3.17;;;8.70;99.90;;;;;;4804633;28;20211;-75
2021/04/05 07:46:50;;;;;;;10.90;2.97;;;8.80;99.90;;;;;;4808332;28;20573;-77
2021/04/05 07:49:16;;;;;;;8.57;2.80;;;9.00;99.90;;;;;;4809064;28;20645;-75
2021/04/05 07:51:47;;;;;;;17.23;4.00;;;9.00;99.90;;;;;;4803541;28;20236;-75
2021/04/05 07:54:11;;;;;;;7.13;2.33;;;9.10;99.90;;;;;;4812278;28;20183;-75
2021/04/05 07:56:39;;;;;;;8.77;2.47;;;9.30;99.90;;;;;;4808047;28;20201;-75
2021/04/05 07:59:12;;;;;;;6.70;2.40;;;9.70;99.90;;;;;;4815634;28;20192;-76
2021/04/05 08:01:44;;;;;;;20.63;4.10;;;9.80;99.90;;;;;;4806441;28;20195;-75
2021/04/05 08:04:11;;;;;;;10.00;2.80;;;9.70;99.90;;;;;;4805606;28;20208;-75
2021/04/05 08:06:38;;;;;;;9.63;2.53;;;9.70;99.90;;;;;;4801692;28;20192;-75
2021/04/05 08:09:04;;;;;;;5.13;1.93;;;9.80;99.90;;;;;;4807883;28;20268;-74
2021/04/05 08:11:45;;;;;;;14.73;3.37;;;10.00;99.90;;;;;;4805459;28;20188;-75
2021/04/05 08:14:19;;;;;;;13.07;3.53;;;10.10;99.90;;;;;;4804166;28;20305;-75
2021/04/05 08:16:50;;;;;;;7.87;2.07;;;10.40;99.90;;;;;;4795700;28;20204;-76
2021/04/05 08:19:16;;;;;;;8.07;2.40;;;10.80;99.90;;;;;;4805860;28;20234;-75
2021/04/05 08:21:46;;;;;;;26.43;5.27;;;11.00;99.90;;;;;;4808591;28;20646;-76
2021/04/05 08:24:16;;;;;;;11.87;2.93;;;11.10;99.90;;;;;;4808246;28;20223;-77
2021/04/05 08:26:47;;;;;;;7.03;2.37;;;11.00;99.90;;;;;;4805731;28;20553;-75
2021/04/05 08:29:16;;;;;;;10.27;3.10;;;11.00;99.90;;;;;;4806039;28;20229;-77
2021/04/05 08:31:56;;;;;;;23.97;4.87;;;11.10;99.90;;;;;;4815957;28;20199;-78
2021/04/05 08:34:30;;;;;;;6.40;2.07;;;11.30;99.90;;;;;;4798431;28;20217;-76
2021/04/05 08:37:17;;;;;;;13.73;3.13;;;11.50;99.90;;;;;;4812877;28;20190;-76
2021/04/05 08:39:49;;;;;;;11.33;2.60;;;11.80;99.90;;;;;;4797743;28;20530;-76
2021/04/05 08:42:19;;;;;;;14.37;2.93;;;12.00;99.90;;;;;;4798152;28;20180;-74
2021/04/05 08:44:50;;;;;;;13.47;2.70;;;12.20;99.90;;;;;;4796757;28;20228;-75
2021/04/05 08:47:16;;;;;;;16.73;3.50;;;12.30;99.90;;;;;;4798939;28;20821;-76
2021/04/05 08:49:41;;;;;;;13.33;2.90;;;12.30;99.90;;;;;;4796586;28;20258;-75
2021/04/05 08:52:08;;;;;;;14.97;3.23;;;12.40;99.90;;;;;;4799080;28;20183;-76
2021/04/05 08:54:32;;;;;;;14.57;2.77;;;12.50;99.90;;;;;;4812201;28;20714;-77
2021/04/05 08:56:58;;;;;;;16.97;3.03;;;12.60;99.90;;;;;;4813351;28;20281;-76
2021/04/05 08:59:27;;;;;;;12.80;2.63;;;12.90;99.90;;;;;;4811755;28;20196;-76
2021/04/05 09:01:57;;;;;;;20.53;3.43;;;13.40;99.90;;;;;;4809359;28;20192;-76
2021/04/05 09:04:24;;;;;;;19.33;3.43;;;13.90;99.90;;;;;;4814476;28;20215;-76
2021/04/05 09:06:55;;;;;;;14.30;2.80;;;14.60;99.90;;;;;;4805952;28;20210;-74
2021/04/05 09:09:21;;;;;;;20.60;3.33;;;15.50;99.90;;;;;;4805002;28;20181;-75
2021/04/05 09:11:44;;;;;;;22.20;3.47;;;17.10;99.90;;;;;;4804321;28;20551;-73
2021/04/05 09:14:07;;;;;;;15.67;2.30;;;18.50;99.90;;;;;;4806296;28;20247;-73
2021/04/05 09:16:59;;;;;;;18.60;2.53;;;19.70;99.90;;;;;;4799433;28;20188;-74
2021/04/05 09:19:50;;;;;;;8.97;1.47;;;20.90;99.90;;;;;;4810348;28;20244;-74
2021/04/05 09:23:06;;;;;;;18.93;2.70;;;21.50;99.90;;;;;;4804057;28;20237;-74
2021/04/05 09:25:47;;;;;;;14.17;2.07;;;22.20;99.90;;;;;;4767700;29;20243;-75
2021/04/05 09:28:55;;;;;;;22.07;2.87;;;22.90;99.90;;;;;;4817553;28;20203;-76
2021/04/05 09:32:00;;;;;;;21.77;2.90;;;23.50;99.90;;;;;;4793140;28;20620;-74
2021/04/05 09:34:50;;;;;;;16.93;2.37;;;23.20;99.90;;;;;;4811228;28;20241;-75
2021/04/05 09:37:52;;;;;;;19.63;2.63;;;23.50;99.90;;;;;;4766860;28;20715;-78
2021/04/05 09:40:52;;;;;;;23.30;6.23;;;23.90;99.90;;;;;;4814793;28;20240;-76
2021/04/05 09:43:53;;;;;;;18.93;2.57;;;23.40;99.90;;;;;;4802891;28;20232;-76
2021/04/05 09:46:29;;;;;;;24.63;3.13;;;22.20;99.90;;;;;;4807187;28;20453;-76
2021/04/05 09:49:06;;;;;;;22.60;3.00;;;20.50;99.90;;;;;;4806872;28;20234;-76
2021/04/05 09:52:21;;;;;;;39.53;5.00;;;20.00;99.90;;;;;;4803757;28;20240;-74
2021/04/05 09:54:48;;;;;;;9.87;1.40;;;19.50;99.90;;;;;;4807640;28;20192;-75
2021/04/05 09:57:17;;;;;;;20.20;2.63;;;19.30;99.90;;;;;;4808202;28;20284;-75
2021/04/05 09:59:45;;;;;;;16.13;2.33;;;18.70;99.90;;;;;;4809433;28;20749;-76
2021/04/05 10:02:11;;;;;;;17.73;2.53;;;18.40;99.90;;;;;;4800128;28;20200;-77
2021/04/05 10:04:35;;;;;;;13.77;2.03;;;18.50;99.90;;;;;;4806685;28;20626;-75
2021/04/05 10:06:59;;;;;;;19.93;2.73;;;18.80;99.90;;;;;;4806275;28;20194;-76
2021/04/05 10:09:31;;;;;;;15.97;2.33;;;19.30;99.90;;;;;;4813685;28;20636;-73
2021/04/05 10:11:54;;;;;;;24.53;3.23;;;19.80;99.90;;;;;;4809587;28;20241;-76
2021/04/05 10:14:19;;;;;;;21.83;3.07;;;19.80;99.90;;;;;;4807777;28;20229;-76
2021/04/05 10:16:51;;;;;;;12.37;2.23;;;19.10;99.90;;;;;;4814776;28;20188;-75
2021/04/05 10:19:15;;;;;;;15.70;2.50;;;19.10;99.90;;;;;;4810504;28;20238;-76
2021/04/05 10:21:43;;;;;;;100.37;55.97;;;19.90;99.90;;;;;;4807699;28;20875;-76
2021/04/05 10:24:08;;;;;;;86.70;77.90;;;21.10;99.90;;;;;;4800104;28;20274;-76
2021/04/05 10:26:33;;;;;;;18.60;2.53;;;21.70;99.90;;;;;;4815570;28;20183;-76
2021/04/05 10:28:56;;;;;;;28.00;3.53;;;21.80;99.90;;;;;;4815993;28;20207;-76
2021/04/05 10:31:22;;;;;;;19.10;2.63;;;20.50;99.90;;;;;;4809286;28;20230;-75
2021/04/05 10:33:46;;;;;;;12.00;1.67;;;19.10;99.90;;;;;;4808607;28;20245;-75
2021/04/05 10:36:11;;;;;;;14.00;2.00;;;18.40;99.90;;;;;;4813225;28;20718;-75
2021/04/05 10:38:36;;;;;;;18.73;2.60;;;18.00;99.90;;;;;;4808103;28;20192;-73
2021/04/05 10:40:59;;;;;;;22.07;3.03;;;18.50;99.90;;;;;;4798686;28;20181;-77
2021/04/05 10:43:25;;;;;;;16.53;2.27;;;19.00;99.90;;;;;;4799793;28;20269;-76
2021/04/05 10:45:55;;;;;;;22.23;2.97;;;19.30;99.90;;;;;;4814525;28;20225;-75
2021/04/05 10:48:21;;;;;;;20.23;2.77;;;19.50;99.90;;;;;;4813781;28;20199;-73
2021/04/05 10:50:46;;;;;;;11.27;1.77;;;19.60;99.90;;;;;;4804588;28;20187;-74
2021/04/05 10:53:17;;;;;;;19.60;2.77;;;19.30;99.90;;;;;;4806149;28;20188;-74
2021/04/05 10:55:44;;;;;;;12.10;1.90;;;19.20;99.90;;;;;;4806669;28;20212;-74
2021/04/05 10:58:10;;;;;;;25.13;3.40;;;19.30;99.90;;;;;;4801004;28;20214;-75
2021/04/05 11:00:36;;;;;;;110.30;13.20;;;19.80;99.90;;;;;;4804112;28;20261;-75
2021/04/05 11:03:04;;;;;;;22.83;3.17;;;20.60;99.90;;;;;;4807053;28;20738;-76
2021/04/05 11:05:26;;;;;;;10.17;1.60;;;;;;;;;;4805266;28;20207;-74
2021/04/05 11:07:56;;;;;;;25.07;3.33;;;21.00;99.90;;;;;;4809057;28;20191;-74
2021/04/05 11:10:20;;;;;;;17.10;2.53;;;21.20;99.90;;;;;;4814424;28;20645;-75
2021/04/05 11:12:47;;;;;;;13.30;1.97;;;21.50;99.90;;;;;;4809464;28;20227;-74
2021/04/05 11:15:12;;;;;;;26.90;3.57;;;21.00;99.90;;;;;;4816994;28;20665;-76
2021/04/05 11:17:39;;;;;;;21.27;2.83;;;19.80;99.90;;;;;;4812374;28;20188;-76
2021/04/05 11:20:03;;;;;;;38.27;4.90;;;18.80;99.90;;;;;;4813486;28;20192;-74
2021/04/05 11:22:29;;;;;;;21.43;3.00;;;18.00;99.90;;;;;;4800165;28;20191;-74
2021/04/05 11:25:00;;;;;;;21.77;2.90;;;17.00;99.90;;;;;;4808708;28;20630;-73
2021/04/05 11:27:27;;;;;;;15.17;2.53;;;16.50;99.90;;;;;;4790007;28;20219;-74
2021/04/05 11:29:52;;;;;;;17.87;2.70;;;16.60;99.90;;;;;;4809513;28;20199;-75
2021/04/05 11:32:18;;;;;;;18.30;3.03;;;16.70;99.90;;;;;;4811965;28;20237;-74
2021/04/05 11:34:43;;;;;;;23.47;3.33;;;16.70;99.90;;;;;;4809319;28;20254;-76
2021/04/05 11:37:12;;;;;;;11.00;1.90;;;16.30;99.90;;;;;;4811922;28;20214;-73
2021/04/05 11:39:36;;;;;;;15.03;2.23;;;16.00;99.90;;;;;;4803460;28;20308;-75
2021/04/05 11:42:02;;;;;;;22.87;3.40;;;16.00;99.90;;;;;;4809242;28;20183;-75
2021/04/05 11:44:28;;;;;;;9.20;1.73;;;15.80;99.90;;;;;;4812368;28;20262;-75
2021/04/05 11:46:55;;;;;;;14.93;2.57;;;15.80;99.90;;;;;;4815791;28;20276;-73
2021/04/05 11:49:19;;;;;;;9.83;1.87;;;15.80;99.90;;;;;;4810457;28;20188;-74
2021/04/05 11:51:47;;;;;;;35.40;5.00;;;16.10;99.90;;;;;;4813667;28;20281;-75
2021/04/05 11:54:16;;;;;;;20.90;3.20;;;17.90;99.90;;;;;;4809291;28;20191;-75
2021/04/05 11:56:45;;;;;;;13.83;2.20;;;20.30;99.90;;;;;;4814029;28;20649;-75
2021/04/05 11:59:14;;;;;;;18.67;2.70;;;22.40;99.90;;;;;;4799379;28;20250;-75
2021/04/05 12:01:41;;;;;;;39.67;5.27;;;24.00;99.90;;;;;;4805213;28;20252;-76
2021/04/05 12:04:14;;;;;;;29.60;3.97;;;25.60;99.90;;;;;;4800223;28;20298;-74
2021/04/05 12:06:40;;;;;;;14.50;2.07;;;27.10;99.90;;;;;;4805470;28;20184;-74
2021/04/05 12:09:09;;;;;;;34.43;4.63;;;27.90;99.90;;;;;;4847660;28;20207;-76
2021/04/05 12:11:41;;;;;;;42.73;5.77;;;29.00;99.90;;;;;;4804714;28;20248;-73
2021/04/05 12:14:09;;;;;;;14.30;2.30;;;29.80;99.90;;;;;;4803132;28;20226;-74
2021/04/05 12:16:32;;;;;;;12.10;2.03;;;31.00;99.90;;;;;;4798335;28;20188;-73
2021/04/05 12:18:56;;;;;;;22.23;2.97;;;30.10;99.90;;;;;;4802213;28;20195;-73
2021/04/05 12:21:19;;;;;;;19.33;2.77;;;27.90;99.90;;;;;;4804183;28;20626;-74
2021/04/05 12:23:42;;;;;;;14.73;2.17;;;26.70;99.90;;;;;;4814957;28;20213;-76
2021/04/05 12:26:05;;;;;;;14.83;2.20;;;;;;;;;;4815552;28;20208;-75
2021/04/05 12:28:36;;;;;;;17.27;2.47;;;26.50;99.90;;;;;;4815325;28;20197;-76
2021/04/05 12:31:00;;;;;;;23.50;3.47;;;25.80;99.90;;;;;;4811463;28;20201;-74
2021/04/05 12:33:26;;;;;;;14.10;2.23;;;24.30;99.90;;;;;;4808131;28;20223;-77
2021/04/05 12:35:52;;;;;;;26.13;3.43;;;22.80;99.90;;;;;;4796399;28;20230;-75
2021/04/05 12:38:16;;;;;;;16.63;2.30;;;22.00;99.90;;;;;;4815515;28;20653;-76
2021/04/05 12:40:41;;;;;;;13.87;2.00;;;21.40;99.90;;;;;;4814776;28;20687;-75
2021/04/05 12:43:06;;;;;;;18.37;2.67;;;20.30;99.90;;;;;;4814668;28;20717;-75
2021/04/05 12:45:29;;;;;;;13.50;1.97;;;;;;;;;;4815276;28;20653;-74
2021/04/05 12:47:52;;;;;;;18.23;2.60;;;18.70;99.90;;;;;;4811946;28;20199;-74
2021/04/05 12:50:21;;;;;;;15.43;2.27;;;18.00;99.90;;;;;;4813976;28;20220;-74
2021/04/05 12:52:45;;;;;;;11.17;1.67;;;17.10;99.90;;;;;;4814797;28;20579;-74
2021/04/05 12:55:10;;;;;;;9.10;1.47;;;16.60;99.90;;;;;;4815372;28;20879;-76
2021/04/05 12:57:35;;;;;;;14.80;2.37;;;16.20;99.90;;;;;;4811250;28;20596;-75
2021/04/05 12:59:57;;;;;;;26.27;3.97;;;;;;;;;;4795736;28;20236;-75
2021/04/05 13:02:22;;;;;;;12.53;2.07;;;15.50;99.90;;;;;;4806691;28;20222;-74
2021/04/05 13:04:50;;;;;;;14.87;2.40;;;15.40;99.90;;;;;;4812130;28;20179;-74